Hauptseite
METAR-TAF:

METAR-TAF

Flughäfen :

Flughafen Khartum

Khartum, Sudan

Breite: 15-36N, Länge: 032-33E, Höhe: 382 m

Beobachtung

Neuester Wetterbericht von vor 22 Minuten, um 08:30 UTC
Wind 12 kt aus Süd
Temperatur 29°C
Luftfeuchtigkeit 62%
Luftdruck 1013 hPa
Sichtweite 10 km oder mehr
keine Wolken unter 1500 m und keine Kumulonimbus oder Gewitterwolken

METAR: HSSS 170830Z 18012KT CAVOK 29/21 Q1013 NOSIG

Zeit: 11:52 (08:52 UTC)

Prognose

Neuester Wetterbericht von vor 3 Stunden und 52 Minuten, um 05:00 UTC
Gültige Prognose vom 17 um 06 UTC bis 18 um 12 UTC
Wind 10 kt aus Süd, Böen bis zu 20 kt
Sichtweite 10 km oder mehr
keine Wolken unter 1500 m und keine Kumulonimbus oder Gewitterwolken

TAF: HSSS 170500Z 1706/1812 18010G20KT CAVOK

Wetterbeobachtungen und Prognosen von mehr als 4000 Flughäfen (METAR und TAF Bericht).

Die verfügbaren Stationen werden durch gelbe und rote Markierungen auf der Karte dargestellt.

Führen Sie die Maus auf sie, um den Namen der Station zu sehen.

Darauf klicken, um die Beobachtung von Wetterbeobachtungen und Prognosen zu sehen.

Um die Karte zu ändern : klicken Sie auf den grünen Tasten mit einem schwarzen Kreuz Zum Vergrößern, auf den grünen Button mit einem Gedankenstrich zu verkleinern, oder auf die grünen Pfeile für benachbarte Karten.


METAR-TAF: